• Join FlightAware (Why Join?)
  • Login
  • US Flag 
06:03AM EDT


 

Airport Tracker/Info


-or-


 

Live Flight TrackerFlight Track Log ✈ SWA1969 ✈ 09-Apr-2013 ✈ KMDW - KMHT

Flight Track Log - Related Links

Times and Time Zones

All times are in EDT time to prevent confusion due to time zone crossing. See the SWA1969 flight status page for this flight to view local times or setup timezone preferences in your user account.

Time Position Orientation Groundspeed Altitude Reporting Facility
EDT Latitude Longitude Course Direction KTS MPH feet Rate Location/Type
11:26AM 41.8000 -87.7000 74° East 175 201 2,300  Level Chicago TRACON
11:27AM 41.8231 -87.5894 74° East 233 268 5,000 1,800 Climbing Chicago Center
11:28AM 41.8178 -87.4906 94° East 258 297 6,900 2,760 Climbing Chicago Center
11:29AM 41.8025 -87.3817 101° East 293 337 10,700 3,360 Climbing Chicago Center
11:30AM 41.7869 -87.2597 100° East 326 375 13,800 3,300 Climbing Chicago Center
11:31AM 41.7967 -87.0864 86° East 392 451 17,500 3,360 Climbing Chicago Center
11:32AM 41.8097 -86.9322 83° East 412 474 20,700 3,060 Climbing Chicago Center
11:33AM 41.8236 -86.7731 83° East 429 494 23,800 2,700 Climbing Chicago Center
11:34AM 41.8367 -86.6256 83° East 439 505 26,200 2,340 Climbing Chicago Center
11:36AM 41.8511 -86.4583 83° East 450 518 28,600 2,460 Climbing Chicago Center
11:37AM 41.8689 -86.2547 83° East 458 527 31,300 2,040 Climbing Chicago Center
11:38AM 41.8836 -86.0811 83° East 467 537 32,900 1,560 Climbing Chicago Center
11:39AM 41.8978 -85.9022 84° East 478 550 34,600 1,560 Climbing Chicago Center
11:40AM 41.9131 -85.7203 84° East 487 560 36,100 1,380 Climbing Chicago Center
11:41AM 41.9281 -85.5369 84° East 489 563 37,500 1,320 Climbing Chicago Center
11:42AM 41.9431 -85.3514 84° East 493 567 38,900 780 Climbing Chicago Center
11:42AM 41.9547 -85.1936 84° East 491 565 39,000  Climbing Cleveland Center
11:43AM 41.9514 -85.0147 91° East 475 547 39,000  Level Cleveland Center
11:44AM 41.9497 -84.8414 91° East 475 547 39,000  Level Cleveland Center
11:45AM 41.9497 -84.6653 90° East 475 547 39,000  Level Cleveland Center
11:46AM 41.9497 -84.4894 90° East 475 547 39,000  Level Cleveland Center
11:47AM 41.9450 -84.3186 92° East 465 535 39,000  Level Cleveland Center
11:48AM 41.9414 -84.1678 92° East 459 528 39,000  Level Cleveland Center
11:49AM 41.9403 -84.0003 90° East 453 521 39,000  Level Cleveland Center
11:50AM 41.9369 -83.8269 91° East 453 521 39,000  Level Cleveland Center
11:51AM 41.9333 -83.6564 92° East 453 521 39,000  Level Cleveland Center
11:52AM 41.9336 -83.4833 90° East 462 532 39,000  Level Cleveland Center
11:53AM 41.9342 -83.2936 90° East 462 532 39,000  Level Cleveland Center
11:54AM 41.9319 -83.1231 91° East 462 532 39,000  Level Cleveland Center
11:55AM 41.9314 -82.9472 90° East 462 532 39,000  Level Cleveland Center
11:56AM 41.9536 -82.7722 80° East 456 525 39,000  Level Cleveland Center
11:58AM 41.9744 -82.6046 80° East  Level FlightAware Approximate
11:58AM 41.9994 -82.4272 80° East 466 536 39,000  Level Cleveland Center
11:59AM 42.0186 -82.2544 81° East 466 536 39,000  Level Cleveland Center
12:00PM 42.0439 -82.0789 79° East 466 536 39,000  Level Cleveland Center
12:01PM 42.0647 -81.9200 80° East 466 536 39,000  Level Cleveland Center
12:02PM 42.0833 -81.7442 82° East 466 536 39,000  Level Cleveland Center
12:03PM 42.1058 -81.5711 80° East 466 536 39,000  Level Cleveland Center
12:04PM 42.1258 -81.3950 81° East 466 536 39,000 360 Level Cleveland Center
12:05PM 42.1481 -81.2019 81° East 466 536 39,800 960 Climbing Cleveland Center
12:06PM 42.1697 -81.0286 80° East 471 542 41,000 600 Climbing Cleveland Center
12:07PM 42.1889 -80.8494 82° East 471 542 41,000  Level Cleveland Center
12:08PM 42.2081 -80.6756 81° East 471 542 41,000  Level Cleveland Center
12:09PM 42.2247 -80.4961 83° East 464 534 41,000  Level Cleveland Center
12:10PM 42.2453 -80.3222 81° East 469 540 41,000  Level Cleveland Center
12:11PM 42.2636 -80.1456 82° East 475 547 41,000 -480 Level Cleveland Center
12:12PM 42.2814 -79.9686 82° East 470 541 40,100 -1,500 Descending Cleveland Center
12:13PM 42.2992 -79.7944 82° East 465 535 38,100 -1,500 Descending Cleveland Center
12:14PM 42.3206 -79.6117 81° East 472 543 37,200 -600 Descending Cleveland Center
12:15PM 42.3378 -79.4344 82° East 477 549 37,000 -120 Descending Cleveland Center
12:16PM 42.3547 -79.2542 83° East 482 555 37,000 -600 Level Cleveland Center
12:17PM 42.3711 -79.0739 83° East 482 555 35,800 -1,020 Descending Cleveland Center
12:18PM 42.3872 -78.8853 83° East 487 560 35,000 -420 Descending Cleveland Center
12:19PM 42.4053 -78.6964 83° East 492 566 35,000  Level Cleveland Center
12:20PM 42.4250 -78.5100 82° East 497 572 35,000  Level Cleveland Center
12:21PM 42.4381 -78.3211 85° East 503 579 35,000  Level Cleveland Center
12:22PM 42.4553 -78.1406 83° East 498 573 35,000  Level Cleveland Center
12:23PM 42.4700 -77.9542 84° East 493 567 35,000  Level Cleveland Center
12:24PM 42.4906 -77.7731 81° East 493 567 35,000 -180 Level Cleveland Center
12:25PM 42.5025 -77.5808 85° East 493 567 34,700 -1,200 Descending Cleveland Center
12:26PM 42.5183 -77.3914 83° East 493 567 32,700 -1,140 Descending Cleveland Center
12:29PM 42.5544 -76.9561 83° East 508 585 31,000 -540 Descending Boston Center
12:30PM 42.5678 -76.7739 84° East 493 567 31,000  Level Boston Center
12:31PM 42.5786 -76.5939 85° East 487 560 31,000  Level Boston Center
12:32PM 42.5936 -76.4144 83° East 481 554 31,000  Level Boston Center
12:33PM 42.6058 -76.2347 85° East 474 545 31,000  Level Boston Center
12:34PM 42.6181 -76.0575 85° East 474 545 31,000  Level Boston Center
12:35PM 42.6300 -75.8719 85° East 480 552 31,000  Level Boston Center
12:36PM 42.6414 -75.6947 85° East 480 552 31,000  Level Boston Center
12:37PM 42.6528 -75.5144 85° East 480 552 31,000 -540 Level Boston Center
12:38PM 42.6636 -75.3372 85° East 475 547 30,000 -1,020 Descending Boston Center
12:39PM 42.6744 -75.1511 85° East 475 547 29,000 -540 Descending Boston Center
12:40PM 42.6847 -74.9708 86° East 475 547 29,000  Level Boston Center
12:41PM 42.6950 -74.7906 86° East 475 547 29,000  Level Boston Center
12:42PM 42.7050 -74.6072 86° East 475 547 29,000 -300 Level Boston Center
12:43PM 42.7164 -74.4294 85° East 475 547 28,500 -780 Descending Boston Center
12:44PM 42.7256 -74.2517 86° East 475 547 27,500 -1,500 Descending Boston Center
12:45PM 42.7325 -74.0739 87° East 475 547 25,500 -1,740 Descending Boston Center
12:46PM 42.7433 -73.8961 85° East 475 547 24,100 -1,260 Descending Boston Center
12:47PM 42.7517 -73.7267 86° East 469 540 23,000 -600 Descending Boston Center
12:48PM 42.7575 -73.5656 87° East 445 512 23,000 -240 Level Boston Center
12:49PM 42.7631 -73.3958 87° East 440 506 22,600 -720 Descending Boston Center
12:50PM 42.7686 -73.2347 87° East 440 506 21,600 -1,020 Descending Boston Center
12:51PM 42.7758 -73.0708 87° East 435 501 20,600 -1,080 Descending Boston Center
12:52PM 42.7786 -72.9097 89° East 435 501 19,500 -1,020 Descending Boston Center
12:53PM 42.7833 -72.7625 87° East 409 471 18,600 -960 Descending Boston Center
12:54PM 42.7858 -72.6097 89° East 397 457 17,600 -1,440 Descending Boston Center
12:55PM 42.7922 -72.4569 87° East 397 457 15,800 -1,980 Descending Boston Center
12:56PM 42.7942 -72.3014 89° East 392 451 13,700 -2,100 Descending Boston Center
12:57PM 42.8044 -72.1572 84° East 380 437 11,600 -1,860 Descending Boston Center
12:58PM 42.8144 -72.0239 84° East 374 430 10,100 -1,500 Descending Boston Center
12:59PM 42.8181 -71.8994 88° East 336 387 8,600 -1,800 Descending Boston Center
01:00PM 42.8111 -71.7778 94° East 319 367 6,600 -1,920 Descending Boston Center
01:01PM 42.8061 -71.6647 93° East 307 353 4,800 -1,500 Descending Boston Center
01:02PM 42.8075 -71.5656 89° East 271 312 3,600 -900 Descending Boston Center
01:03PM 42.8069 -71.4694 90° East 253 291 3,100 -600 Descending Boston Center
01:04PM 42.8250 -71.3956 72° East 208 239 2,400 -720 Descending Boston Center
01:05PM 42.8603 -71.3892 North 149 171 1,700 -780 Descending Boston Center
01:06PM 42.8939 -71.4114 334° Northwest 109 125 900 -720 Descending Boston Center
01:07PM 42.9231 -71.4194 349° North 117 135 400 3,960 Descending Boston Center
01:08PM 42.9544 -71.4275 349° North 117 135 9,000 4,260 Climbing Boston Center
01:09PM 42.9858 -71.4325 353° North 117 135 9,000  Level Boston Center
01:10PM 43.0169 -71.4406 349° North 117 135 9,000  Level Boston Center
01:11PM 43.0358 -71.4431 354° North 117 135 9,000  Level Boston Center
01:13PM 42.9328 -71.4358 180° South  Level Estimated
01:20PM 42.9328 -71.4358 180° South  Level Estimated
01:21PM 42.9328 -71.4358 180° South  Level Estimated
01:22PM 42.9328 -71.4358 180° South  Level Estimated
01:23PM 42.9328 -71.4358 180° South  Level Estimated
01:24PM 42.9328 -71.4358 180° South  Level Estimated